sensor_id;sensor_type;location;lat;lon;timestamp;P1;durP1;ratioP1;P2;durP2;ratioP2
7154;SDS011;3619;53.784;10.440;2023-12-22T06:47:07;7.57;;;7.27;;
7154;SDS011;3619;53.784;10.440;2023-12-22T06:49:50;8.37;;;8.07;;
7154;SDS011;3619;53.784;10.440;2023-12-22T07:47:21;2.40;;;2.30;;
7154;SDS011;3619;53.784;10.440;2023-12-22T08:25:50;2.40;;;2.30;;
7154;SDS011;3619;53.784;10.440;2023-12-22T08:28:17;2.70;;;2.60;;
7154;SDS011;3619;53.784;10.440;2023-12-22T08:30:44;2.60;;;2.50;;
7154;SDS011;3619;53.784;10.440;2023-12-22T08:33:10;2.53;;;2.43;;
7154;SDS011;3619;53.784;10.440;2023-12-22T08:35:38;2.80;;;2.70;;
7154;SDS011;3619;53.784;10.440;2023-12-22T08:38:04;3.03;;;2.93;;
7154;SDS011;3619;53.784;10.440;2023-12-22T08:40:32;2.87;;;2.77;;
7154;SDS011;3619;53.784;10.440;2023-12-22T08:43:00;2.60;;;2.50;;
7154;SDS011;3619;53.784;10.440;2023-12-22T08:45:27;2.80;;;2.70;;
7154;SDS011;3619;53.784;10.440;2023-12-22T08:47:54;2.80;;;2.70;;
7154;SDS011;3619;53.784;10.440;2023-12-22T08:50:21;2.93;;;2.83;;
7154;SDS011;3619;53.784;10.440;2023-12-22T08:52:48;3.40;;;3.30;;
7154;SDS011;3619;53.784;10.440;2023-12-22T08:55:15;2.60;;;2.50;;
7154;SDS011;3619;53.784;10.440;2023-12-22T08:57:41;2.47;;;2.37;;
7154;SDS011;3619;53.784;10.440;2023-12-22T09:00:10;2.20;;;2.10;;
7154;SDS011;3619;53.784;10.440;2023-12-22T09:02:38;2.20;;;2.10;;
7154;SDS011;3619;53.784;10.440;2023-12-22T09:05:06;1.87;;;1.80;;
7154;SDS011;3619;53.784;10.440;2023-12-22T09:07:33;2.00;;;1.90;;
7154;SDS011;3619;53.784;10.440;2023-12-22T09:10:00;2.23;;;2.13;;
7154;SDS011;3619;53.784;10.440;2023-12-22T09:12:28;2.73;;;2.63;;
7154;SDS011;3619;53.784;10.440;2023-12-22T09:14:55;1.73;;;1.73;;
7154;SDS011;3619;53.784;10.440;2023-12-22T09:17:25;2.00;;;1.90;;
7154;SDS011;3619;53.784;10.440;2023-12-22T09:19:52;2.30;;;2.20;;
7154;SDS011;3619;53.784;10.440;2023-12-22T09:22:20;1.97;;;1.87;;
7154;SDS011;3619;53.784;10.440;2023-12-22T09:24:47;2.37;;;2.27;;
7154;SDS011;3619;53.784;10.440;2023-12-22T09:27:14;2.10;;;2.00;;
7154;SDS011;3619;53.784;10.440;2023-12-22T09:29:41;2.27;;;2.17;;
7154;SDS011;3619;53.784;10.440;2023-12-22T09:32:08;2.57;;;2.47;;
7154;SDS011;3619;53.784;10.440;2023-12-22T09:34:36;2.30;;;2.20;;
7154;SDS011;3619;53.784;10.440;2023-12-22T09:37:04;2.50;;;2.40;;
7154;SDS011;3619;53.784;10.440;2023-12-22T09:39:31;2.37;;;2.27;;
7154;SDS011;3619;53.784;10.440;2023-12-22T09:41:57;2.77;;;2.67;;
7154;SDS011;3619;53.784;10.440;2023-12-22T09:44:24;2.00;;;1.90;;
7154;SDS011;3619;53.784;10.440;2023-12-22T09:46:52;2.10;;;2.00;;
7154;SDS011;3619;53.784;10.440;2023-12-22T09:49:20;2.80;;;2.70;;
7154;SDS011;3619;53.784;10.440;2023-12-22T09:51:49;2.50;;;2.40;;
7154;SDS011;3619;53.784;10.440;2023-12-22T09:54:17;2.60;;;2.50;;
7154;SDS011;3619;53.784;10.440;2023-12-22T09:56:45;2.50;;;2.40;;
7154;SDS011;3619;53.784;10.440;2023-12-22T09:59:13;2.27;;;2.17;;
7154;SDS011;3619;53.784;10.440;2023-12-22T10:01:41;14.00;;;4.43;;
7154;SDS011;3619;53.784;10.440;2023-12-22T10:04:10;3.20;;;3.10;;
7154;SDS011;3619;53.784;10.440;2023-12-22T10:06:37;3.70;;;3.60;;
7154;SDS011;3619;53.784;10.440;2023-12-22T10:09:06;3.80;;;3.70;;
7154;SDS011;3619;53.784;10.440;2023-12-22T10:11:34;3.97;;;3.87;;
7154;SDS011;3619;53.784;10.440;2023-12-22T10:14:02;5.50;;;5.30;;
7154;SDS011;3619;53.784;10.440;2023-12-22T10:16:30;3.97;;;3.87;;
7154;SDS011;3619;53.784;10.440;2023-12-22T10:18:57;4.93;;;4.73;;
7154;SDS011;3619;53.784;10.440;2023-12-22T10:21:25;4.27;;;4.17;;
7154;SDS011;3619;53.784;10.440;2023-12-22T10:23:52;5.60;;;5.40;;
7154;SDS011;3619;53.784;10.440;2023-12-22T10:26:20;4.70;;;4.50;;
7154;SDS011;3619;53.784;10.440;2023-12-22T10:28:48;5.37;;;5.17;;
7154;SDS011;3619;53.784;10.440;2023-12-22T10:31:14;5.53;;;5.33;;
7154;SDS011;3619;53.784;10.440;2023-12-22T10:33:42;4.37;;;4.27;;
7154;SDS011;3619;53.784;10.440;2023-12-22T10:36:09;3.57;;;3.47;;
7154;SDS011;3619;53.784;10.440;2023-12-22T10:38:36;3.67;;;3.57;;
7154;SDS011;3619;53.784;10.440;2023-12-22T10:41:03;4.07;;;3.97;;
7154;SDS011;3619;53.784;10.440;2023-12-22T10:43:37;3.77;;;3.67;;
7154;SDS011;3619;53.784;10.440;2023-12-22T10:46:04;4.20;;;4.10;;
7154;SDS011;3619;53.784;10.440;2023-12-22T10:48:33;3.47;;;3.37;;
7154;SDS011;3619;53.784;10.440;2023-12-22T10:51:00;4.60;;;4.40;;
7154;SDS011;3619;53.784;10.440;2023-12-22T10:53:26;4.80;;;4.60;;
7154;SDS011;3619;53.784;10.440;2023-12-22T10:55:53;3.67;;;3.57;;
7154;SDS011;3619;53.784;10.440;2023-12-22T10:58:20;4.20;;;4.10;;
7154;SDS011;3619;53.784;10.440;2023-12-22T11:00:49;3.60;;;3.50;;
7154;SDS011;3619;53.784;10.440;2023-12-22T11:03:18;3.83;;;3.73;;
7154;SDS011;3619;53.784;10.440;2023-12-22T11:05:49;3.20;;;3.10;;
7154;SDS011;3619;53.784;10.440;2023-12-22T11:08:19;3.20;;;3.10;;
7154;SDS011;3619;53.784;10.440;2023-12-22T11:10:48;2.70;;;2.60;;
7154;SDS011;3619;53.784;10.440;2023-12-22T11:13:20;2.73;;;2.63;;
7154;SDS011;3619;53.784;10.440;2023-12-22T11:15:49;2.80;;;2.70;;
7154;SDS011;3619;53.784;10.440;2023-12-22T11:18:18;2.70;;;2.60;;
7154;SDS011;3619;53.784;10.440;2023-12-22T11:20:45;2.90;;;2.80;;
7154;SDS011;3619;53.784;10.440;2023-12-22T11:23:13;2.60;;;2.50;;
7154;SDS011;3619;53.784;10.440;2023-12-22T11:25:41;1.80;;;1.80;;
7154;SDS011;3619;53.784;10.440;2023-12-22T11:28:10;2.53;;;2.43;;
7154;SDS011;3619;53.784;10.440;2023-12-22T11:30:39;2.50;;;2.40;;
7154;SDS011;3619;53.784;10.440;2023-12-22T11:33:08;2.43;;;2.33;;
7154;SDS011;3619;53.784;10.440;2023-12-22T11:35:36;2.40;;;2.30;;
7154;SDS011;3619;53.784;10.440;2023-12-22T11:38:03;2.33;;;2.23;;
7154;SDS011;3619;53.784;10.440;2023-12-22T11:40:31;2.50;;;2.40;;
7154;SDS011;3619;53.784;10.440;2023-12-22T11:42:58;2.27;;;2.17;;
7154;SDS011;3619;53.784;10.440;2023-12-22T11:45:29;2.50;;;2.40;;
7154;SDS011;3619;53.784;10.440;2023-12-22T11:47:56;2.47;;;2.37;;
7154;SDS011;3619;53.784;10.440;2023-12-22T11:50:33;2.20;;;2.10;;
7154;SDS011;3619;53.784;10.440;2023-12-22T11:53:19;2.40;;;2.30;;
7154;SDS011;3619;53.784;10.440;2023-12-22T11:55:56;2.33;;;2.23;;
7154;SDS011;3619;53.784;10.440;2023-12-22T12:01:09;2.50;;;2.40;;
7154;SDS011;3619;53.784;10.440;2023-12-22T12:03:37;2.17;;;2.07;;
7154;SDS011;3619;53.784;10.440;2023-12-22T12:06:22;2.70;;;2.60;;
7154;SDS011;3619;53.784;10.440;2023-12-22T12:08:57;2.30;;;2.20;;
7154;SDS011;3619;53.784;10.440;2023-12-22T12:14:29;2.20;;;2.10;;
7154;SDS011;3619;53.784;10.440;2023-12-22T12:16:59;2.47;;;2.37;;
7154;SDS011;3619;53.784;10.440;2023-12-22T12:19:32;2.20;;;2.10;;
7154;SDS011;3619;53.784;10.440;2023-12-22T12:22:01;1.80;;;1.80;;
7154;SDS011;3619;53.784;10.440;2023-12-22T12:24:28;2.27;;;2.17;;
7154;SDS011;3619;53.784;10.440;2023-12-22T12:26:55;2.60;;;2.50;;
7154;SDS011;3619;53.784;10.440;2023-12-22T12:29:22;2.20;;;2.10;;
7154;SDS011;3619;53.784;10.440;2023-12-22T12:31:49;2.70;;;2.60;;
7154;SDS011;3619;53.784;10.440;2023-12-22T12:34:17;3.00;;;2.90;;
7154;SDS011;3619;53.784;10.440;2023-12-22T12:36:46;2.53;;;2.43;;
7154;SDS011;3619;53.784;10.440;2023-12-22T12:39:14;2.60;;;2.50;;
7154;SDS011;3619;53.784;10.440;2023-12-22T12:41:42;2.90;;;2.80;;
7154;SDS011;3619;53.784;10.440;2023-12-22T12:44:11;2.60;;;2.50;;
7154;SDS011;3619;53.784;10.440;2023-12-22T12:46:40;3.03;;;2.93;;
7154;SDS011;3619;53.784;10.440;2023-12-22T12:49:08;2.57;;;2.47;;
7154;SDS011;3619;53.784;10.440;2023-12-22T12:51:37;3.80;;;3.70;;
7154;SDS011;3619;53.784;10.440;2023-12-22T12:54:04;2.90;;;2.80;;
7154;SDS011;3619;53.784;10.440;2023-12-22T12:56:37;3.07;;;2.97;;
7154;SDS011;3619;53.784;10.440;2023-12-22T12:59:06;2.60;;;2.50;;
7154;SDS011;3619;53.784;10.440;2023-12-22T13:01:37;2.40;;;2.30;;
7154;SDS011;3619;53.784;10.440;2023-12-22T13:04:06;2.90;;;2.80;;
7154;SDS011;3619;53.784;10.440;2023-12-22T13:06:33;2.47;;;2.37;;
7154;SDS011;3619;53.784;10.440;2023-12-22T13:09:00;2.57;;;2.47;;
7154;SDS011;3619;53.784;10.440;2023-12-22T13:11:29;2.33;;;2.23;;
7154;SDS011;3619;53.784;10.440;2023-12-22T13:13:59;2.20;;;2.10;;
7154;SDS011;3619;53.784;10.440;2023-12-22T13:16:26;1.77;;;1.77;;
7154;SDS011;3619;53.784;10.440;2023-12-22T13:18:55;2.77;;;2.67;;
7154;SDS011;3619;53.784;10.440;2023-12-22T13:21:23;2.67;;;2.57;;
7154;SDS011;3619;53.784;10.440;2023-12-22T13:26:37;2.40;;;2.30;;
7154;SDS011;3619;53.784;10.440;2023-12-22T13:29:05;2.40;;;2.30;;
7154;SDS011;3619;53.784;10.440;2023-12-22T13:31:33;2.30;;;2.20;;
7154;SDS011;3619;53.784;10.440;2023-12-22T13:34:02;2.27;;;2.17;;
7154;SDS011;3619;53.784;10.440;2023-12-22T13:36:33;2.50;;;2.40;;
7154;SDS011;3619;53.784;10.440;2023-12-22T13:39:02;2.23;;;2.13;;
7154;SDS011;3619;53.784;10.440;2023-12-22T13:41:31;1.97;;;1.90;;
7154;SDS011;3619;53.784;10.440;2023-12-22T13:44:01;2.30;;;2.20;;
7154;SDS011;3619;53.784;10.440;2023-12-22T13:46:31;2.60;;;2.50;;
7154;SDS011;3619;53.784;10.440;2023-12-22T13:49:00;4.80;;;4.60;;
7154;SDS011;3619;53.784;10.440;2023-12-22T13:51:27;2.30;;;2.20;;
7154;SDS011;3619;53.784;10.440;2023-12-22T13:54:05;2.37;;;2.27;;
7154;SDS011;3619;53.784;10.440;2023-12-22T13:56:32;3.33;;;3.23;;
7154;SDS011;3619;53.784;10.440;2023-12-22T13:59:01;2.13;;;2.03;;
7154;SDS011;3619;53.784;10.440;2023-12-22T14:01:28;2.70;;;2.60;;
7154;SDS011;3619;53.784;10.440;2023-12-22T14:03:57;2.30;;;2.20;;
7154;SDS011;3619;53.784;10.440;2023-12-22T14:06:24;2.63;;;2.53;;
7154;SDS011;3619;53.784;10.440;2023-12-22T14:08:52;2.90;;;2.80;;
7154;SDS011;3619;53.784;10.440;2023-12-22T14:11:19;2.20;;;2.10;;
7154;SDS011;3619;53.784;10.440;2023-12-22T14:13:47;2.50;;;2.40;;
7154;SDS011;3619;53.784;10.440;2023-12-22T14:16:14;2.90;;;2.80;;
7154;SDS011;3619;53.784;10.440;2023-12-22T14:18:42;2.93;;;2.83;;
7154;SDS011;3619;53.784;10.440;2023-12-22T14:21:11;2.87;;;2.77;;
7154;SDS011;3619;53.784;10.440;2023-12-22T14:23:38;2.90;;;2.80;;
7154;SDS011;3619;53.784;10.440;2023-12-22T14:26:05;3.40;;;3.30;;
7154;SDS011;3619;53.784;10.440;2023-12-22T14:28:31;3.13;;;3.03;;
7154;SDS011;3619;53.784;10.440;2023-12-22T14:30:58;3.20;;;3.10;;
7154;SDS011;3619;53.784;10.440;2023-12-22T14:33:26;3.30;;;3.20;;
7154;SDS011;3619;53.784;10.440;2023-12-22T14:35:54;2.43;;;2.33;;
7154;SDS011;3619;53.784;10.440;2023-12-22T14:38:21;3.30;;;3.20;;
7154;SDS011;3619;53.784;10.440;2023-12-22T14:40:48;3.70;;;3.60;;
7154;SDS011;3619;53.784;10.440;2023-12-22T14:43:15;3.60;;;3.50;;
7154;SDS011;3619;53.784;10.440;2023-12-22T14:45:41;3.50;;;3.40;;
7154;SDS011;3619;53.784;10.440;2023-12-22T14:48:08;3.90;;;3.80;;
7154;SDS011;3619;53.784;10.440;2023-12-22T14:50:35;3.90;;;3.80;;
7154;SDS011;3619;53.784;10.440;2023-12-22T14:53:03;3.90;;;3.80;;
7154;SDS011;3619;53.784;10.440;2023-12-22T14:55:30;4.97;;;4.77;;
7154;SDS011;3619;53.784;10.440;2023-12-22T14:57:57;4.93;;;4.73;;
7154;SDS011;3619;53.784;10.440;2023-12-22T15:00:24;5.20;;;5.00;;
7154;SDS011;3619;53.784;10.440;2023-12-22T15:02:51;5.50;;;5.30;;
7154;SDS011;3619;53.784;10.440;2023-12-22T15:05:18;4.87;;;4.67;;
7154;SDS011;3619;53.784;10.440;2023-12-22T15:07:45;5.07;;;4.87;;
7154;SDS011;3619;53.784;10.440;2023-12-22T15:10:13;5.90;;;5.70;;
7154;SDS011;3619;53.784;10.440;2023-12-22T15:12:40;6.03;;;5.83;;
7154;SDS011;3619;53.784;10.440;2023-12-22T15:15:08;4.53;;;4.37;;
7154;SDS011;3619;53.784;10.440;2023-12-22T15:17:36;6.60;;;6.40;;
7154;SDS011;3619;53.784;10.440;2023-12-22T15:20:02;6.20;;;6.00;;
7154;SDS011;3619;53.784;10.440;2023-12-22T15:22:31;6.10;;;5.90;;
7154;SDS011;3619;53.784;10.440;2023-12-22T15:24:59;6.47;;;6.27;;
7154;SDS011;3619;53.784;10.440;2023-12-22T15:27:27;6.10;;;5.90;;
7154;SDS011;3619;53.784;10.440;2023-12-22T15:29:53;6.30;;;6.10;;
7154;SDS011;3619;53.784;10.440;2023-12-22T15:32:20;6.00;;;5.80;;
7154;SDS011;3619;53.784;10.440;2023-12-22T15:34:47;5.57;;;5.37;;
7154;SDS011;3619;53.784;10.440;2023-12-22T15:37:13;5.00;;;4.80;;
7154;SDS011;3619;53.784;10.440;2023-12-22T15:39:41;4.70;;;4.50;;
7154;SDS011;3619;53.784;10.440;2023-12-22T15:42:09;4.10;;;4.00;;
7154;SDS011;3619;53.784;10.440;2023-12-22T15:44:39;4.50;;;4.30;;
7154;SDS011;3619;53.784;10.440;2023-12-22T15:47:07;4.40;;;4.27;;
7154;SDS011;3619;53.784;10.440;2023-12-22T15:49:38;4.60;;;4.40;;
7154;SDS011;3619;53.784;10.440;2023-12-22T15:52:08;3.93;;;3.83;;
7154;SDS011;3619;53.784;10.440;2023-12-22T15:54:38;3.83;;;3.73;;
7154;SDS011;3619;53.784;10.440;2023-12-22T15:57:05;3.80;;;3.70;;
7154;SDS011;3619;53.784;10.440;2023-12-22T15:59:31;3.83;;;3.73;;
7154;SDS011;3619;53.784;10.440;2023-12-22T16:01:59;4.60;;;4.40;;
7154;SDS011;3619;53.784;10.440;2023-12-22T16:04:26;3.97;;;3.87;;
7154;SDS011;3619;53.784;10.440;2023-12-22T16:06:55;4.67;;;4.47;;
7154;SDS011;3619;53.784;10.440;2023-12-22T16:09:22;3.77;;;3.67;;
7154;SDS011;3619;53.784;10.440;2023-12-22T16:11:56;3.90;;;3.80;;
7154;SDS011;3619;53.784;10.440;2023-12-22T16:14:26;3.83;;;3.73;;
7154;SDS011;3619;53.784;10.440;2023-12-22T16:16:56;4.20;;;4.10;;
7154;SDS011;3619;53.784;10.440;2023-12-22T16:19:27;3.50;;;3.40;;
7154;SDS011;3619;53.784;10.440;2023-12-22T16:21:55;3.30;;;3.20;;
7154;SDS011;3619;53.784;10.440;2023-12-22T16:24:23;3.10;;;3.00;;
7154;SDS011;3619;53.784;10.440;2023-12-22T16:26:52;3.10;;;3.00;;
7154;SDS011;3619;53.784;10.440;2023-12-22T16:29:23;3.73;;;3.63;;
7154;SDS011;3619;53.784;10.440;2023-12-22T16:31:50;3.07;;;2.97;;
7154;SDS011;3619;53.784;10.440;2023-12-22T16:34:17;3.10;;;3.00;;
7154;SDS011;3619;53.784;10.440;2023-12-22T16:36:45;3.67;;;3.57;;
7154;SDS011;3619;53.784;10.440;2023-12-22T16:39:13;3.43;;;3.33;;
7154;SDS011;3619;53.784;10.440;2023-12-22T16:41:39;3.80;;;3.70;;
7154;SDS011;3619;53.784;10.440;2023-12-22T16:44:06;3.07;;;2.97;;
7154;SDS011;3619;53.784;10.440;2023-12-22T16:46:33;3.30;;;3.20;;
7154;SDS011;3619;53.784;10.440;2023-12-22T16:49:00;3.40;;;3.30;;
7154;SDS011;3619;53.784;10.440;2023-12-22T16:51:34;3.70;;;3.60;;
7154;SDS011;3619;53.784;10.440;2023-12-22T16:54:03;3.40;;;3.30;;
7154;SDS011;3619;53.784;10.440;2023-12-22T16:56:29;3.50;;;3.40;;
7154;SDS011;3619;53.784;10.440;2023-12-22T16:58:57;3.40;;;3.30;;
7154;SDS011;3619;53.784;10.440;2023-12-22T17:01:25;4.00;;;3.90;;
7154;SDS011;3619;53.784;10.440;2023-12-22T17:03:52;3.37;;;3.27;;
7154;SDS011;3619;53.784;10.440;2023-12-22T17:06:19;3.63;;;3.53;;
7154;SDS011;3619;53.784;10.440;2023-12-22T17:08:46;3.83;;;3.73;;
7154;SDS011;3619;53.784;10.440;2023-12-22T17:11:14;3.23;;;3.13;;
7154;SDS011;3619;53.784;10.440;2023-12-22T17:13:40;3.77;;;3.67;;
7154;SDS011;3619;53.784;10.440;2023-12-22T17:16:07;3.83;;;3.73;;
7154;SDS011;3619;53.784;10.440;2023-12-22T17:18:35;3.50;;;3.40;;
7154;SDS011;3619;53.784;10.440;2023-12-22T17:21:02;3.63;;;3.53;;
7154;SDS011;3619;53.784;10.440;2023-12-22T17:23:29;4.30;;;4.20;;
7154;SDS011;3619;53.784;10.440;2023-12-22T17:25:55;4.83;;;4.63;;
7154;SDS011;3619;53.784;10.440;2023-12-22T17:28:23;5.13;;;4.93;;
7154;SDS011;3619;53.784;10.440;2023-12-22T17:30:50;4.17;;;4.07;;
7154;SDS011;3619;53.784;10.440;2023-12-22T17:33:19;5.63;;;5.43;;
7154;SDS011;3619;53.784;10.440;2023-12-22T17:35:46;6.67;;;6.47;;
7154;SDS011;3619;53.784;10.440;2023-12-22T17:38:12;6.73;;;6.53;;
7154;SDS011;3619;53.784;10.440;2023-12-22T17:40:39;8.20;;;7.90;;
7154;SDS011;3619;53.784;10.440;2023-12-22T17:43:06;7.87;;;7.57;;
7154;SDS011;3619;53.784;10.440;2023-12-22T17:45:34;8.37;;;8.07;;
7154;SDS011;3619;53.784;10.440;2023-12-22T17:48:01;10.23;;;9.83;;
7154;SDS011;3619;53.784;10.440;2023-12-22T17:50:27;9.67;;;9.30;;
7154;SDS011;3619;53.784;10.440;2023-12-22T17:52:54;11.53;;;11.13;;
7154;SDS011;3619;53.784;10.440;2023-12-22T17:55:21;11.50;;;11.10;;
7154;SDS011;3619;53.784;10.440;2023-12-22T17:57:48;11.57;;;11.17;;
7154;SDS011;3619;53.784;10.440;2023-12-22T18:00:15;12.87;;;12.37;;
7154;SDS011;3619;53.784;10.440;2023-12-22T18:02:44;12.67;;;12.17;;
7154;SDS011;3619;53.784;10.440;2023-12-22T18:05:12;14.00;;;13.50;;
7154;SDS011;3619;53.784;10.440;2023-12-22T18:07:39;15.03;;;14.43;;
7154;SDS011;3619;53.784;10.440;2023-12-22T18:10:06;15.33;;;14.73;;
7154;SDS011;3619;53.784;10.440;2023-12-22T18:12:35;17.20;;;16.60;;
7154;SDS011;3619;53.784;10.440;2023-12-22T18:15:03;18.80;;;18.10;;
7154;SDS011;3619;53.784;10.440;2023-12-22T18:17:32;17.17;;;16.57;;
7154;SDS011;3619;53.784;10.440;2023-12-22T18:20:00;20.43;;;19.63;;
7154;SDS011;3619;53.784;10.440;2023-12-22T18:22:27;20.40;;;19.60;;
7154;SDS011;3619;53.784;10.440;2023-12-22T18:24:54;21.47;;;20.67;;
7154;SDS011;3619;53.784;10.440;2023-12-22T18:27:21;22.30;;;21.50;;
7154;SDS011;3619;53.784;10.440;2023-12-22T18:29:48;25.47;;;24.47;;
7154;SDS011;3619;53.784;10.440;2023-12-22T18:32:14;21.30;;;20.50;;
7154;SDS011;3619;53.784;10.440;2023-12-22T18:34:41;22.23;;;21.43;;
7154;SDS011;3619;53.784;10.440;2023-12-22T18:37:10;23.70;;;22.80;;
7154;SDS011;3619;53.784;10.440;2023-12-22T18:39:37;23.37;;;22.47;;
7154;SDS011;3619;53.784;10.440;2023-12-22T18:42:04;26.40;;;25.40;;
7154;SDS011;3619;53.784;10.440;2023-12-22T18:44:31;27.23;;;26.23;;
7154;SDS011;3619;53.784;10.440;2023-12-22T18:46:59;25.13;;;24.17;;
7154;SDS011;3619;53.784;10.440;2023-12-22T18:49:26;25.97;;;24.97;;
7154;SDS011;3619;53.784;10.440;2023-12-22T18:51:54;29.43;;;28.33;;
7154;SDS011;3619;53.784;10.440;2023-12-22T18:54:23;25.63;;;24.63;;
7154;SDS011;3619;53.784;10.440;2023-12-22T18:56:49;26.43;;;25.43;;
7154;SDS011;3619;53.784;10.440;2023-12-22T18:59:16;24.67;;;23.77;;
7154;SDS011;3619;53.784;10.440;2023-12-22T19:01:43;25.57;;;24.57;;
7154;SDS011;3619;53.784;10.440;2023-12-22T19:04:09;25.90;;;24.90;;
7154;SDS011;3619;53.784;10.440;2023-12-22T19:06:37;27.97;;;26.87;;
7154;SDS011;3619;53.784;10.440;2023-12-22T19:09:04;27.97;;;26.87;;
7154;SDS011;3619;53.784;10.440;2023-12-22T19:11:33;26.60;;;25.60;;
7154;SDS011;3619;53.784;10.440;2023-12-22T19:14:00;29.57;;;28.47;;
7154;SDS011;3619;53.784;10.440;2023-12-22T19:16:27;26.60;;;25.60;;
7154;SDS011;3619;53.784;10.440;2023-12-22T19:18:54;27.30;;;26.30;;
7154;SDS011;3619;53.784;10.440;2023-12-22T19:21:20;29.27;;;28.17;;
7154;SDS011;3619;53.784;10.440;2023-12-22T19:23:47;26.50;;;25.50;;
7154;SDS011;3619;53.784;10.440;2023-12-22T19:26:14;26.27;;;25.27;;
7154;SDS011;3619;53.784;10.440;2023-12-22T19:28:43;28.57;;;27.47;;
7154;SDS011;3619;53.784;10.440;2023-12-22T19:31:10;23.50;;;22.60;;
7154;SDS011;3619;53.784;10.440;2023-12-22T19:33:38;25.33;;;24.33;;
7154;SDS011;3619;53.784;10.440;2023-12-22T19:36:05;22.77;;;21.90;;
7154;SDS011;3619;53.784;10.440;2023-12-22T19:38:33;24.97;;;24.07;;
7154;SDS011;3619;53.784;10.440;2023-12-22T19:40:59;25.50;;;24.50;;
7154;SDS011;3619;53.784;10.440;2023-12-22T19:43:26;24.87;;;23.97;;
7154;SDS011;3619;53.784;10.440;2023-12-22T19:45:54;21.83;;;21.03;;
7154;SDS011;3619;53.784;10.440;2023-12-22T19:48:22;25.77;;;24.77;;
7154;SDS011;3619;53.784;10.440;2023-12-22T19:50:49;26.33;;;25.33;;
7154;SDS011;3619;53.784;10.440;2023-12-22T19:53:17;27.17;;;26.17;;
7154;SDS011;3619;53.784;10.440;2023-12-22T19:55:44;28.27;;;27.13;;
7154;SDS011;3619;53.784;10.440;2023-12-22T19:58:13;28.23;;;27.17;;
7154;SDS011;3619;53.784;10.440;2023-12-22T20:00:43;28.17;;;27.07;;
7154;SDS011;3619;53.784;10.440;2023-12-22T20:03:12;27.33;;;26.33;;
7154;SDS011;3619;53.784;10.440;2023-12-22T20:05:38;28.67;;;27.57;;
7154;SDS011;3619;53.784;10.440;2023-12-22T20:08:06;29.00;;;27.90;;
7154;SDS011;3619;53.784;10.440;2023-12-22T20:10:34;28.07;;;26.97;;
7154;SDS011;3619;53.784;10.440;2023-12-22T20:13:02;28.13;;;27.03;;
7154;SDS011;3619;53.784;10.440;2023-12-22T20:15:28;29.83;;;28.73;;
7154;SDS011;3619;53.784;10.440;2023-12-22T20:17:55;29.03;;;27.93;;
7154;SDS011;3619;53.784;10.440;2023-12-22T20:20:23;30.83;;;29.63;;
7154;SDS011;3619;53.784;10.440;2023-12-22T20:22:51;34.33;;;33.03;;
7154;SDS011;3619;53.784;10.440;2023-12-22T20:25:18;35.57;;;34.20;;
7154;SDS011;3619;53.784;10.440;2023-12-22T20:27:45;36.13;;;34.73;;
7154;SDS011;3619;53.784;10.440;2023-12-22T20:30:12;39.77;;;38.27;;
7154;SDS011;3619;53.784;10.440;2023-12-22T20:32:40;39.07;;;37.57;;
7154;SDS011;3619;53.784;10.440;2023-12-22T20:35:07;39.07;;;37.57;;
7154;SDS011;3619;53.784;10.440;2023-12-22T20:37:35;39.20;;;37.70;;
7154;SDS011;3619;53.784;10.440;2023-12-22T20:40:01;44.13;;;42.43;;
7154;SDS011;3619;53.784;10.440;2023-12-22T20:42:29;38.80;;;37.30;;
7154;SDS011;3619;53.784;10.440;2023-12-22T20:44:55;45.00;;;43.30;;
7154;SDS011;3619;53.784;10.440;2023-12-22T20:47:22;46.30;;;44.53;;
7154;SDS011;3619;53.784;10.440;2023-12-22T20:49:49;43.00;;;41.37;;
7154;SDS011;3619;53.784;10.440;2023-12-22T20:52:16;42.67;;;41.07;;
7154;SDS011;3619;53.784;10.440;2023-12-22T20:54:44;41.10;;;39.50;;
7154;SDS011;3619;53.784;10.440;2023-12-22T20:57:11;42.73;;;41.13;;
7154;SDS011;3619;53.784;10.440;2023-12-22T20:59:39;39.30;;;37.80;;
7154;SDS011;3619;53.784;10.440;2023-12-22T21:02:06;35.30;;;33.97;;
7154;SDS011;3619;53.784;10.440;2023-12-22T21:04:35;39.33;;;37.83;;
7154;SDS011;3619;53.784;10.440;2023-12-22T21:07:03;36.10;;;34.70;;
7154;SDS011;3619;53.784;10.440;2023-12-22T21:09:30;35.73;;;34.37;;
7154;SDS011;3619;53.784;10.440;2023-12-22T21:12:01;38.67;;;37.17;;
7154;SDS011;3619;53.784;10.440;2023-12-22T21:14:28;34.73;;;33.43;;
7154;SDS011;3619;53.784;10.440;2023-12-22T21:16:55;35.53;;;34.20;;
7154;SDS011;3619;53.784;10.440;2023-12-22T21:19:22;39.53;;;38.03;;
7154;SDS011;3619;53.784;10.440;2023-12-22T21:21:48;39.10;;;37.60;;
7154;SDS011;3619;53.784;10.440;2023-12-22T21:24:15;40.70;;;39.13;;
7154;SDS011;3619;53.784;10.440;2023-12-22T21:26:42;40.90;;;39.30;;
7154;SDS011;3619;53.784;10.440;2023-12-22T21:29:10;38.90;;;37.40;;
7154;SDS011;3619;53.784;10.440;2023-12-22T21:31:40;44.00;;;42.30;;
7154;SDS011;3619;53.784;10.440;2023-12-22T21:34:07;44.13;;;42.43;;
7154;SDS011;3619;53.784;10.440;2023-12-22T21:36:34;44.03;;;42.33;;
7154;SDS011;3619;53.784;10.440;2023-12-22T21:39:01;41.40;;;39.80;;
7154;SDS011;3619;53.784;10.440;2023-12-22T21:41:28;41.10;;;39.50;;
7154;SDS011;3619;53.784;10.440;2023-12-22T21:43:55;43.43;;;41.77;;
7154;SDS011;3619;53.784;10.440;2023-12-22T21:46:23;44.50;;;42.80;;
7154;SDS011;3619;53.784;10.440;2023-12-22T21:48:50;42.30;;;40.70;;
7154;SDS011;3619;53.784;10.440;2023-12-22T21:51:17;43.77;;;42.07;;
7154;SDS011;3619;53.784;10.440;2023-12-22T21:53:49;45.53;;;43.83;;
7154;SDS011;3619;53.784;10.440;2023-12-22T21:56:19;47.47;;;45.67;;
7154;SDS011;3619;53.784;10.440;2023-12-22T21:58:46;47.67;;;45.87;;
7154;SDS011;3619;53.784;10.440;2023-12-22T22:01:13;48.17;;;46.37;;
7154;SDS011;3619;53.784;10.440;2023-12-22T22:03:41;46.17;;;44.40;;
7154;SDS011;3619;53.784;10.440;2023-12-22T22:06:08;42.97;;;41.37;;
7154;SDS011;3619;53.784;10.440;2023-12-22T22:08:35;45.47;;;43.77;;
7154;SDS011;3619;53.784;10.440;2023-12-22T22:11:02;45.07;;;43.37;;
7154;SDS011;3619;53.784;10.440;2023-12-22T22:13:29;40.03;;;38.53;;
7154;SDS011;3619;53.784;10.440;2023-12-22T22:15:56;43.87;;;42.17;;
7154;SDS011;3619;53.784;10.440;2023-12-22T22:18:23;41.53;;;39.93;;
7154;SDS011;3619;53.784;10.440;2023-12-22T22:20:51;39.33;;;37.83;;
7154;SDS011;3619;53.784;10.440;2023-12-22T22:23:18;37.60;;;36.20;;
7154;SDS011;3619;53.784;10.440;2023-12-22T22:25:45;38.37;;;36.87;;
7154;SDS011;3619;53.784;10.440;2023-12-22T22:28:18;38.00;;;36.53;;
7154;SDS011;3619;53.784;10.440;2023-12-22T22:30:45;39.57;;;38.07;;
7154;SDS011;3619;53.784;10.440;2023-12-22T22:33:12;40.63;;;39.10;;
7154;SDS011;3619;53.784;10.440;2023-12-22T22:35:42;39.47;;;37.97;;
7154;SDS011;3619;53.784;10.440;2023-12-22T22:38:10;36.30;;;34.90;;
7154;SDS011;3619;53.784;10.440;2023-12-22T22:40:38;37.70;;;36.30;;
7154;SDS011;3619;53.784;10.440;2023-12-22T22:43:08;38.83;;;37.33;;
7154;SDS011;3619;53.784;10.440;2023-12-22T22:45:39;34.83;;;33.53;;
7154;SDS011;3619;53.784;10.440;2023-12-22T22:48:09;33.27;;;32.00;;
7154;SDS011;3619;53.784;10.440;2023-12-22T22:50:36;36.13;;;34.73;;
7154;SDS011;3619;53.784;10.440;2023-12-22T22:53:05;31.87;;;30.67;;
7154;SDS011;3619;53.784;10.440;2023-12-22T22:55:35;33.93;;;32.63;;
7154;SDS011;3619;53.784;10.440;2023-12-22T22:58:02;33.87;;;32.57;;
7154;SDS011;3619;53.784;10.440;2023-12-22T23:00:30;31.90;;;30.70;;
7154;SDS011;3619;53.784;10.440;2023-12-22T23:02:58;30.10;;;29.00;;
7154;SDS011;3619;53.784;10.440;2023-12-22T23:08:00;31.77;;;30.57;;
7154;SDS011;3619;53.784;10.440;2023-12-22T23:10:30;39.17;;;37.67;;
7154;SDS011;3619;53.784;10.440;2023-12-22T23:12:58;41.10;;;39.50;;
7154;SDS011;3619;53.784;10.440;2023-12-22T23:15:31;38.77;;;37.27;;
7154;SDS011;3619;53.784;10.440;2023-12-22T23:18:02;43.27;;;41.60;;
7154;SDS011;3619;53.784;10.440;2023-12-22T23:20:29;42.87;;;41.27;;
7154;SDS011;3619;53.784;10.440;2023-12-22T23:22:57;39.60;;;38.10;;